createdAt,value
2023-05-24T00:00:37.812Z,16.59
2023-05-24T00:03:25.143Z,16.59
2023-05-24T00:05:53.941Z,16.58
2023-05-24T00:08:22.455Z,16.56
2023-05-24T00:10:50.883Z,16.55
2023-05-24T00:13:19.364Z,16.54
2023-05-24T00:15:47.646Z,16.52
2023-05-24T00:18:18.182Z,16.51
2023-05-24T00:20:47.268Z,16.49
2023-05-24T00:23:16.044Z,16.46
2023-05-24T00:25:44.888Z,16.45
2023-05-24T00:28:13.188Z,16.43
2023-05-24T00:30:41.747Z,16.41
2023-05-24T00:33:10.458Z,16.39
2023-05-24T00:35:38.857Z,16.37
2023-05-24T00:38:07.066Z,16.35
2023-05-24T00:40:35.403Z,16.32
2023-05-24T00:43:03.823Z,16.31
2023-05-24T00:45:33.711Z,16.28
2023-05-24T00:48:02.614Z,16.26
2023-05-24T00:50:31.194Z,16.24
2023-05-24T00:53:02.507Z,16.22
2023-05-24T00:55:31.059Z,16.19
2023-05-24T00:57:59.607Z,16.16
2023-05-24T01:00:30.288Z,16.13
2023-05-24T01:02:58.895Z,16.11
2023-05-24T01:05:27.645Z,16.09
2023-05-24T01:08:21.962Z,16.07
2023-05-24T01:11:40.280Z,16.05
2023-05-24T01:14:26.653Z,16.02
2023-05-24T01:17:19.311Z,16.00
2023-05-24T01:20:08.938Z,15.97
2023-05-24T01:23:06.668Z,15.96
2023-05-24T01:25:49.718Z,15.94
2023-05-24T01:28:19.273Z,15.91
2023-05-24T01:30:48.377Z,15.90
2023-05-24T01:33:17.576Z,15.88
2023-05-24T01:35:46.000Z,15.87
2023-05-24T01:38:16.101Z,15.86
2023-05-24T01:40:48.066Z,15.84
2023-05-24T01:43:36.869Z,15.84
2023-05-24T01:46:38.794Z,15.83
2023-05-24T01:49:31.138Z,15.80
2023-05-24T01:52:05.563Z,15.79
2023-05-24T01:54:39.209Z,15.78
2023-05-24T01:57:10.876Z,15.78
2023-05-24T01:59:43.599Z,15.77
2023-05-24T02:02:12.738Z,15.76
2023-05-24T02:04:42.256Z,15.76
2023-05-24T02:07:11.223Z,15.75
2023-05-24T02:09:39.581Z,15.74
2023-05-24T02:12:08.650Z,15.73
2023-05-24T02:14:38.085Z,15.73
2023-05-24T02:17:06.984Z,15.73
2023-05-24T02:19:39.730Z,15.73
2023-05-24T02:22:08.056Z,15.72
2023-05-24T02:24:38.093Z,15.72
2023-05-24T02:27:06.695Z,15.71
2023-05-24T02:29:35.353Z,15.70
2023-05-24T02:32:03.854Z,15.70
2023-05-24T02:34:32.253Z,15.70
2023-05-24T02:37:02.469Z,15.70
2023-05-24T02:39:33.626Z,15.69
2023-05-24T02:42:09.123Z,15.68
2023-05-24T02:44:38.892Z,15.67
2023-05-24T02:47:07.387Z,15.66
2023-05-24T02:49:35.630Z,15.66
2023-05-24T02:52:04.284Z,15.65
2023-05-24T02:54:33.920Z,15.65
2023-05-24T02:57:02.925Z,15.65
2023-05-24T02:59:31.342Z,15.65
2023-05-24T03:02:00.080Z,15.65
2023-05-24T03:04:28.562Z,15.66
2023-05-24T03:06:56.945Z,15.66
2023-05-24T03:09:25.293Z,15.67
2023-05-24T03:11:54.811Z,15.68
2023-05-24T03:14:25.128Z,15.69
2023-05-24T03:16:53.475Z,15.70
2023-05-24T03:19:21.815Z,15.71
2023-05-24T03:21:50.494Z,15.72
2023-05-24T03:24:19.472Z,15.73
2023-05-24T03:26:48.175Z,15.74
2023-05-24T03:29:17.911Z,15.75
2023-05-24T03:31:46.806Z,15.76
2023-05-24T03:34:18.193Z,15.79
2023-05-24T03:36:49.139Z,15.81
2023-05-24T03:39:17.430Z,15.82
2023-05-24T03:41:57.393Z,15.84
2023-05-24T03:44:26.387Z,15.87
2023-05-24T03:46:55.059Z,15.89
2023-05-24T03:49:23.456Z,15.92
2023-05-24T03:51:51.771Z,15.95
2023-05-24T03:54:20.283Z,15.99
2023-05-24T03:56:48.689Z,16.03
2023-05-24T03:59:17.001Z,16.07
2023-05-24T04:01:46.053Z,16.12
2023-05-24T04:04:16.232Z,16.16
2023-05-24T04:06:44.649Z,16.21
2023-05-24T04:09:14.873Z,16.26
2023-05-24T04:11:43.298Z,16.30
2023-05-24T04:14:13.620Z,16.32
2023-05-24T04:16:42.215Z,16.34
2023-05-24T04:19:11.641Z,16.38
2023-05-24T04:21:39.999Z,16.42
2023-05-24T04:24:08.341Z,16.46
2023-05-24T04:26:37.870Z,16.50
2023-05-24T04:29:07.856Z,16.53
2023-05-24T04:31:36.758Z,16.56
2023-05-24T04:34:08.118Z,16.61
2023-05-24T04:36:37.085Z,16.64
2023-05-24T04:39:46.672Z,16.68
2023-05-24T04:42:35.045Z,16.70
2023-05-24T04:45:20.993Z,16.71
2023-05-24T04:47:49.336Z,16.76
2023-05-24T04:50:18.315Z,16.78
2023-05-24T04:52:47.270Z,16.80
2023-05-24T04:55:15.725Z,16.82
2023-05-24T04:57:44.009Z,16.85
2023-05-24T05:00:12.948Z,16.87
2023-05-24T05:02:41.346Z,16.90
2023-05-24T05:05:09.776Z,16.91
2023-05-24T05:07:38.672Z,16.93
2023-05-24T05:10:08.052Z,16.96
2023-05-24T05:12:36.472Z,17.00
2023-05-24T05:15:08.745Z,17.02
2023-05-24T05:17:37.161Z,17.05
2023-05-24T05:20:06.190Z,17.08
2023-05-24T05:22:34.440Z,17.10
2023-05-24T05:25:02.778Z,17.12
2023-05-24T05:27:31.269Z,17.16
2023-05-24T05:29:59.567Z,17.21
2023-05-24T05:32:28.068Z,17.25
2023-05-24T05:34:56.301Z,17.29
2023-05-24T05:37:24.614Z,17.29
2023-05-24T05:39:52.998Z,17.29
2023-05-24T05:42:21.515Z,17.29
2023-05-24T05:44:49.831Z,17.31
2023-05-24T05:47:18.339Z,17.35
2023-05-24T05:49:46.743Z,17.35
2023-05-24T05:52:15.084Z,17.38
2023-05-24T05:54:43.513Z,17.43
2023-05-24T05:57:12.035Z,17.44
2023-05-24T05:59:40.289Z,17.47
2023-05-24T06:02:08.875Z,17.52
2023-05-24T06:04:37.221Z,17.57
2023-05-24T06:07:05.716Z,17.59
2023-05-24T06:09:34.090Z,17.60
2023-05-24T06:12:02.458Z,17.61
2023-05-24T06:14:32.135Z,17.57
2023-05-24T06:17:00.572Z,17.52
2023-05-24T06:19:28.957Z,17.50
2023-05-24T06:21:57.827Z,17.47
2023-05-24T06:24:26.224Z,17.40
2023-05-24T06:26:54.812Z,17.36
2023-05-24T06:29:23.841Z,17.36
2023-05-24T06:31:52.407Z,17.36
2023-05-24T06:34:23.987Z,17.36
2023-05-24T06:36:54.951Z,17.38
2023-05-24T06:39:25.379Z,17.32
2023-05-24T06:41:54.063Z,17.26
2023-05-24T06:44:33.677Z,17.27
2023-05-24T06:47:02.350Z,17.31
2023-05-24T06:49:30.801Z,17.30
2023-05-24T06:51:59.343Z,17.28
2023-05-24T06:54:27.695Z,17.26
2023-05-24T06:56:55.958Z,17.19
2023-05-24T06:59:24.457Z,17.14
2023-05-24T07:01:59.385Z,17.12
2023-05-24T07:04:29.409Z,17.09
2023-05-24T07:06:58.615Z,17.13
2023-05-24T07:09:27.250Z,17.14
2023-05-24T07:11:55.518Z,17.15
2023-05-24T07:14:26.198Z,17.24
2023-05-24T07:16:57.737Z,17.38
2023-05-24T07:19:29.898Z,17.53
2023-05-24T07:21:58.494Z,17.65
2023-05-24T07:24:26.940Z,17.84
2023-05-24T07:26:57.681Z,18.01
2023-05-24T07:29:26.279Z,18.17
2023-05-24T07:31:56.817Z,18.28
2023-05-24T07:34:27.893Z,18.36
2023-05-24T07:36:58.999Z,18.45
2023-05-24T07:39:27.915Z,18.47
2023-05-24T07:41:56.570Z,18.53
2023-05-24T07:44:25.415Z,18.59
2023-05-24T07:46:55.076Z,18.65
2023-05-24T07:49:24.168Z,18.63
2023-05-24T07:51:53.104Z,18.61
2023-05-24T07:54:21.616Z,18.60
2023-05-24T07:56:50.636Z,18.61
2023-05-24T07:59:23.044Z,18.60
2023-05-24T08:01:52.828Z,18.53
2023-05-24T08:04:21.989Z,18.49
2023-05-24T08:06:51.006Z,18.44
2023-05-24T08:09:19.406Z,18.34
2023-05-24T08:11:47.842Z,18.34
2023-05-24T08:14:16.244Z,18.41
2023-05-24T08:16:44.756Z,18.45
2023-05-24T08:19:13.076Z,18.41
2023-05-24T08:21:42.722Z,18.41
2023-05-24T08:24:11.859Z,18.46
2023-05-24T08:26:40.419Z,18.51
2023-05-24T08:29:08.745Z,18.53
2023-05-24T08:31:38.598Z,18.59
2023-05-24T08:34:07.411Z,18.63
2023-05-24T08:36:35.790Z,18.65
2023-05-24T08:39:05.544Z,18.70
2023-05-24T08:41:37.729Z,18.79
2023-05-24T08:44:07.810Z,18.87
2023-05-24T08:46:37.206Z,18.98
2023-05-24T08:49:07.775Z,19.14
2023-05-24T08:51:38.767Z,19.19
2023-05-24T08:54:08.490Z,19.24
2023-05-24T08:56:37.657Z,19.33
2023-05-24T08:59:07.514Z,19.37
2023-05-24T09:01:39.831Z,19.41
2023-05-24T09:04:09.102Z,19.41
2023-05-24T09:06:39.015Z,19.46
2023-05-24T09:09:09.448Z,19.57
2023-05-24T09:11:41.160Z,19.72
2023-05-24T09:14:11.278Z,19.89
2023-05-24T09:16:39.994Z,20.05
2023-05-24T09:19:08.442Z,20.24
2023-05-24T09:21:37.590Z,20.34
2023-05-24T09:24:09.650Z,20.46
2023-05-24T09:26:38.034Z,20.53
2023-05-24T09:29:09.526Z,20.74
2023-05-24T09:31:39.563Z,20.92
2023-05-24T09:34:16.801Z,21.00
2023-05-24T09:36:46.597Z,21.05
2023-05-24T09:39:14.914Z,21.11
2023-05-24T09:41:44.232Z,21.17
2023-05-24T09:44:16.866Z,21.07
2023-05-24T09:46:46.350Z,20.92
2023-05-24T09:49:15.469Z,20.89
2023-05-24T09:51:43.807Z,20.96
2023-05-24T09:54:12.876Z,21.04
2023-05-24T09:56:42.002Z,21.02
2023-05-24T09:59:10.417Z,21.00
2023-05-24T10:01:38.895Z,20.96
2023-05-24T10:04:09.940Z,21.00
2023-05-24T10:06:43.130Z,21.06
2023-05-24T10:09:14.105Z,21.01
2023-05-24T10:11:43.311Z,20.91
2023-05-24T10:14:12.344Z,20.74
2023-05-24T10:16:40.740Z,20.43
2023-05-24T10:19:09.181Z,20.07
2023-05-24T10:21:42.750Z,19.70
2023-05-24T10:24:12.863Z,19.47
2023-05-24T10:26:42.772Z,19.20
2023-05-24T10:29:22.752Z,18.88
2023-05-24T10:31:54.081Z,18.67
2023-05-24T10:34:23.172Z,18.50
2023-05-24T10:36:51.936Z,18.36
2023-05-24T10:39:22.952Z,18.22
2023-05-24T10:41:51.986Z,18.02
2023-05-24T10:44:21.371Z,17.85
2023-05-24T10:47:06.898Z,17.70
2023-05-24T10:49:40.027Z,17.54
2023-05-24T10:52:10.658Z,17.41
2023-05-24T10:54:44.684Z,17.28
2023-05-24T10:57:35.376Z,17.07
2023-05-24T11:00:35.442Z,16.92
2023-05-24T11:03:09.675Z,16.85
2023-05-24T11:06:08.000Z,16.79
2023-05-24T11:09:11.238Z,16.72
2023-05-24T11:15:10.064Z,16.56
2023-05-24T11:18:16.392Z,16.48
2023-05-24T11:20:47.215Z,16.44
2023-05-24T11:23:17.061Z,16.39
2023-05-24T11:25:51.750Z,16.32
2023-05-24T11:28:31.175Z,16.26
2023-05-24T11:31:09.917Z,16.22
2023-05-24T11:33:56.109Z,16.19
2023-05-24T11:36:40.374Z,16.19
2023-05-24T11:39:16.849Z,16.16
2023-05-24T11:41:45.444Z,16.14
2023-05-24T11:44:18.877Z,16.12
2023-05-24T11:46:47.303Z,16.14
2023-05-24T11:49:17.276Z,16.17
2023-05-24T11:51:45.707Z,16.19
2023-05-24T11:54:14.289Z,16.21
2023-05-24T11:56:42.771Z,16.23
2023-05-24T11:59:24.372Z,16.22
2023-05-24T12:02:04.000Z,16.20
2023-05-24T12:04:33.270Z,16.20
2023-05-24T12:07:02.374Z,16.19
2023-05-24T12:09:30.871Z,16.12
2023-05-24T12:11:59.459Z,16.07
2023-05-24T12:14:31.311Z,16.02
2023-05-24T12:17:01.211Z,15.97
2023-05-24T12:19:34.535Z,15.94
2023-05-24T12:22:07.736Z,15.95
2023-05-24T12:24:37.687Z,15.96
2023-05-24T12:27:10.246Z,16.01
2023-05-24T12:29:41.156Z,16.01
2023-05-24T12:32:15.454Z,16.01
2023-05-24T12:34:45.206Z,16.05
2023-05-24T12:37:14.887Z,16.07
2023-05-24T12:39:44.469Z,16.07
2023-05-24T12:42:13.998Z,16.09
2023-05-24T12:44:42.929Z,16.12
2023-05-24T12:47:12.245Z,16.17
2023-05-24T12:49:40.731Z,16.24
2023-05-24T12:52:09.399Z,16.29
2023-05-24T12:54:37.944Z,16.32
2023-05-24T12:57:06.564Z,16.26
2023-05-24T12:59:35.225Z,16.18
2023-05-24T13:02:03.818Z,16.20
2023-05-24T13:04:34.017Z,16.21
2023-05-24T13:07:03.419Z,16.19
2023-05-24T13:09:31.688Z,16.24
2023-05-24T13:12:00.170Z,16.31
2023-05-24T13:14:28.709Z,16.35
2023-05-24T13:16:57.200Z,16.38
2023-05-24T13:19:25.715Z,16.42
2023-05-24T13:21:54.219Z,16.43
2023-05-24T13:24:23.353Z,16.45
2023-05-24T13:26:54.497Z,16.49
2023-05-24T13:29:36.807Z,16.52
2023-05-24T13:32:08.289Z,16.58
2023-05-24T13:34:37.166Z,16.65
2023-05-24T13:37:06.757Z,16.73
2023-05-24T13:39:38.821Z,16.81
2023-05-24T13:42:07.633Z,16.91
2023-05-24T13:44:36.855Z,17.03
2023-05-24T13:47:05.415Z,17.11
2023-05-24T13:49:36.786Z,17.18
2023-05-24T13:52:05.287Z,17.20
2023-05-24T13:54:33.706Z,17.25
2023-05-24T13:57:02.637Z,17.30
2023-05-24T13:59:31.597Z,17.31
2023-05-24T14:02:02.663Z,17.32
2023-05-24T14:04:31.409Z,17.31
2023-05-24T14:06:59.967Z,17.26
2023-05-24T14:09:28.483Z,17.22
2023-05-24T14:11:57.932Z,17.18
2023-05-24T14:16:59.410Z,17.02
2023-05-24T14:19:28.134Z,17.00
2023-05-24T14:21:56.492Z,16.99
2023-05-24T14:24:24.721Z,16.97
2023-05-24T14:26:53.086Z,16.99
2023-05-24T14:29:21.517Z,17.02
2023-05-24T14:31:50.098Z,17.05
2023-05-24T14:34:18.540Z,17.07
2023-05-24T14:36:48.138Z,17.08
2023-05-24T14:39:16.648Z,17.08
2023-05-24T14:41:45.134Z,17.09
2023-05-24T14:44:13.448Z,17.09
2023-05-24T14:46:41.907Z,17.11
2023-05-24T14:49:10.186Z,17.12
2023-05-24T14:51:38.482Z,17.12
2023-05-24T14:54:06.880Z,17.16
2023-05-24T14:56:35.807Z,17.20
2023-05-24T14:59:04.395Z,17.24
2023-05-24T15:01:32.782Z,17.32
2023-05-24T15:04:01.949Z,17.35
2023-05-24T15:06:34.899Z,17.38
2023-05-24T15:09:04.061Z,17.36
2023-05-24T15:11:33.181Z,17.31
2023-05-24T15:14:02.104Z,17.29
2023-05-24T15:16:30.614Z,17.32
2023-05-24T15:18:58.901Z,17.34
2023-05-24T15:21:27.278Z,17.36
2023-05-24T15:23:55.978Z,17.39
2023-05-24T15:26:24.183Z,17.42
2023-05-24T15:28:52.527Z,17.41
2023-05-24T15:31:21.189Z,17.38
2023-05-24T15:33:49.482Z,17.34
2023-05-24T15:36:17.766Z,17.29
2023-05-24T15:38:46.120Z,17.29
2023-05-24T15:41:14.510Z,17.30
2023-05-24T15:43:42.874Z,17.36
2023-05-24T15:46:11.318Z,17.42
2023-05-24T15:48:39.721Z,17.42
2023-05-24T15:53:39.486Z,17.36
2023-05-24T15:56:08.708Z,17.33
2023-05-24T15:58:36.910Z,17.34
2023-05-24T16:01:05.471Z,17.35
2023-05-24T16:03:33.925Z,17.32
2023-05-24T16:06:02.404Z,17.27
2023-05-24T16:08:31.400Z,17.25
2023-05-24T16:10:59.826Z,17.25
2023-05-24T16:13:28.175Z,17.21
2023-05-24T16:15:56.538Z,17.15
2023-05-24T16:18:27.045Z,17.04
2023-05-24T16:20:55.342Z,16.97
2023-05-24T16:23:23.792Z,16.87
2023-05-24T16:25:52.186Z,16.79
2023-05-24T16:28:24.111Z,16.71
2023-05-24T16:30:55.820Z,16.63
2023-05-24T16:33:25.149Z,16.52
2023-05-24T16:35:56.845Z,16.47
2023-05-24T16:38:26.136Z,16.43
2023-05-24T16:40:54.562Z,16.38
2023-05-24T16:43:23.018Z,16.36
2023-05-24T16:45:51.993Z,16.35
2023-05-24T16:48:21.996Z,16.34
2023-05-24T16:50:51.653Z,16.31
2023-05-24T16:53:23.117Z,16.26
2023-05-24T16:55:54.235Z,16.19
2023-05-24T16:58:29.939Z,16.13
2023-05-24T17:00:58.784Z,16.09
2023-05-24T17:03:30.943Z,16.05
2023-05-24T17:06:03.730Z,16.02
2023-05-24T17:08:35.618Z,15.98
2023-05-24T17:11:05.575Z,15.93
2023-05-24T17:13:34.272Z,15.89
2023-05-24T17:16:04.419Z,15.82
2023-05-24T17:18:33.178Z,15.76
2023-05-24T17:21:05.155Z,15.73
2023-05-24T17:23:36.562Z,15.72
2023-05-24T17:26:08.066Z,15.70
2023-05-24T17:28:36.987Z,15.68
2023-05-24T17:31:09.569Z,15.64
2023-05-24T17:33:38.209Z,15.61
2023-05-24T17:36:07.181Z,15.58
2023-05-24T17:38:39.615Z,15.56
2023-05-24T17:41:09.713Z,15.54
2023-05-24T17:43:40.272Z,15.54
2023-05-24T17:46:09.748Z,15.55
2023-05-24T17:48:39.951Z,15.52
2023-05-24T17:51:09.404Z,15.47
2023-05-24T17:53:38.309Z,15.44
2023-05-24T17:56:07.639Z,15.40
2023-05-24T17:58:37.154Z,15.35
2023-05-24T18:01:07.480Z,15.31
2023-05-24T18:03:40.923Z,15.26
2023-05-24T18:06:10.105Z,15.20
2023-05-24T18:08:42.570Z,15.15
2023-05-24T18:11:13.237Z,15.13
2023-05-24T18:13:43.021Z,15.12
2023-05-24T18:16:12.635Z,15.09
2023-05-24T18:18:41.499Z,15.07
2023-05-24T18:21:10.623Z,15.04
2023-05-24T18:23:39.302Z,15.02
2023-05-24T18:26:10.195Z,15.00
2023-05-24T18:28:39.071Z,14.98
2023-05-24T18:31:10.571Z,14.96
2023-05-24T18:33:39.502Z,14.93
2023-05-24T18:36:08.534Z,14.91
2023-05-24T18:38:37.449Z,14.90
2023-05-24T18:41:09.593Z,14.87
2023-05-24T18:43:38.330Z,14.83
2023-05-24T18:46:07.049Z,14.81
2023-05-24T18:48:35.496Z,14.78
2023-05-24T18:51:04.078Z,14.74
2023-05-24T18:53:32.806Z,14.71
2023-05-24T18:56:01.188Z,14.69
2023-05-24T18:58:30.944Z,14.68
2023-05-24T19:00:59.347Z,14.66
2023-05-24T19:03:27.805Z,14.64
2023-05-24T19:05:56.105Z,14.62
2023-05-24T19:08:24.437Z,14.61
2023-05-24T19:10:52.730Z,14.59
2023-05-24T19:13:21.147Z,14.58
2023-05-24T19:15:49.401Z,14.56
2023-05-24T19:18:17.696Z,14.54
2023-05-24T19:20:46.006Z,14.52
2023-05-24T19:23:14.412Z,14.49
2023-05-24T19:25:44.187Z,14.46
2023-05-24T19:28:12.716Z,14.42
2023-05-24T19:30:41.196Z,14.41
2023-05-24T19:33:09.546Z,14.41
2023-05-24T19:35:39.489Z,14.39
2023-05-24T19:38:07.867Z,14.38
2023-05-24T19:40:36.175Z,14.36
2023-05-24T19:43:04.381Z,14.35
2023-05-24T19:45:32.863Z,14.34
2023-05-24T19:48:01.411Z,14.34
2023-05-24T19:50:31.353Z,14.34
2023-05-24T19:52:59.879Z,14.33
2023-05-24T19:55:28.191Z,14.33
2023-05-24T19:57:56.654Z,14.32
2023-05-24T20:00:25.129Z,14.30
2023-05-24T20:02:53.735Z,14.28
2023-05-24T20:05:22.435Z,14.27
2023-05-24T20:07:51.010Z,14.24
2023-05-24T20:10:19.381Z,14.23
2023-05-24T20:12:47.700Z,14.20
2023-05-24T20:15:17.455Z,14.17
2023-05-24T20:17:46.208Z,14.15
2023-05-24T20:20:14.750Z,14.15
2023-05-24T20:22:43.230Z,14.14
2023-05-24T20:25:11.804Z,14.12
2023-05-24T20:27:41.981Z,14.12
2023-05-24T20:30:12.033Z,14.10
2023-05-24T20:32:40.571Z,14.09
2023-05-24T20:35:09.268Z,14.08
2023-05-24T20:37:37.858Z,14.06
2023-05-24T20:40:07.531Z,14.05
2023-05-24T20:42:35.815Z,14.05
2023-05-24T20:45:05.130Z,14.03
2023-05-24T20:47:34.053Z,14.02
2023-05-24T20:50:06.689Z,14.00
2023-05-24T20:52:40.796Z,13.98
2023-05-24T20:55:09.245Z,13.97
2023-05-24T20:57:38.186Z,13.96
2023-05-24T21:00:07.465Z,13.97
2023-05-24T21:02:36.931Z,13.97
2023-05-24T21:05:06.332Z,13.97
2023-05-24T21:07:34.659Z,13.97
2023-05-24T21:10:03.075Z,13.97
2023-05-24T21:12:31.423Z,13.95
2023-05-24T21:14:59.918Z,13.94
2023-05-24T21:17:28.292Z,13.93
2023-05-24T21:19:56.739Z,13.90
2023-05-24T21:22:25.158Z,13.87
2023-05-24T21:24:55.727Z,13.85
2023-05-24T21:27:24.144Z,13.82
2023-05-24T21:29:52.497Z,13.81
2023-05-24T21:32:20.875Z,13.81
2023-05-24T21:34:50.058Z,13.81
2023-05-24T21:37:18.510Z,13.81
2023-05-24T21:39:47.392Z,13.81
2023-05-24T21:42:15.769Z,13.81
2023-05-24T21:44:44.016Z,13.80
2023-05-24T21:47:12.468Z,13.79
2023-05-24T21:49:41.121Z,13.78
2023-05-24T21:52:09.371Z,13.76
2023-05-24T21:54:37.605Z,13.74
2023-05-24T21:57:07.434Z,13.74
2023-05-24T21:59:35.800Z,13.74
2023-05-24T22:02:04.319Z,13.74
2023-05-24T22:04:32.620Z,13.74
2023-05-24T22:07:01.109Z,13.72
2023-05-24T22:09:29.428Z,13.71
2023-05-24T22:11:57.842Z,13.71
2023-05-24T22:14:27.183Z,13.70
2023-05-24T22:16:55.529Z,13.69
2023-05-24T22:19:39.905Z,13.68
2023-05-24T22:22:10.040Z,13.67
2023-05-24T22:24:38.379Z,13.66
2023-05-24T22:27:09.809Z,13.66
2023-05-24T22:29:38.308Z,13.66
2023-05-24T22:32:06.740Z,13.65
2023-05-24T22:34:35.244Z,13.65
2023-05-24T22:37:03.951Z,13.66
2023-05-24T22:39:32.941Z,13.64
2023-05-24T22:42:01.838Z,13.62
2023-05-24T22:44:30.336Z,13.61
2023-05-24T22:46:58.686Z,13.61
2023-05-24T22:49:29.517Z,13.61
2023-05-24T22:51:57.968Z,13.60
2023-05-24T22:54:26.432Z,13.59
2023-05-24T22:56:54.813Z,13.58
2023-05-24T22:59:23.226Z,13.56
2023-05-24T23:01:51.416Z,13.54
2023-05-24T23:04:21.772Z,13.53
2023-05-24T23:06:53.228Z,13.53
2023-05-24T23:09:34.799Z,13.51
2023-05-24T23:12:08.080Z,13.50
2023-05-24T23:14:38.613Z,13.50
2023-05-24T23:17:10.376Z,13.49
2023-05-24T23:19:46.360Z,13.49
2023-05-24T23:22:23.862Z,13.47
2023-05-24T23:24:52.551Z,13.46
2023-05-24T23:27:21.077Z,13.44
2023-05-24T23:29:49.324Z,13.42
2023-05-24T23:32:17.615Z,13.41
2023-05-24T23:34:45.874Z,13.41
2023-05-24T23:37:14.197Z,13.40
2023-05-24T23:39:42.439Z,13.40
2023-05-24T23:42:10.962Z,13.39
2023-05-24T23:44:39.259Z,13.37
2023-05-24T23:47:07.749Z,13.36
2023-05-24T23:49:36.337Z,13.36
2023-05-24T23:52:05.009Z,13.35
2023-05-24T23:54:34.038Z,13.35
2023-05-24T23:57:04.033Z,13.35
2023-05-24T23:59:32.210Z,13.33
